Time;durP1;ratioP1;P1;durP2;ratioP2;P2;SDS_P1;SDS_P2;PMS_P1;PMS_P2;Temp;Humidity;BMP_temperature;BMP_pressure;BME280_temperature;BME280_humidity;BME280_pressure;Samples;Min_cycle;Max_cycle;Signal;HPM_P1;HPM_P2
2023/11/28 00:00:33;;;;;;;20.10;7.30;;;;;;;-3.45;77.21;98467.42;79100;1308;3013045;-65
2023/11/28 00:03:00;;;;;;;13.10;4.90;;;;;;;-3.39;76.97;98473.62;79167;1310;3013025;-64
2023/11/28 00:05:28;;;;;;;7.10;4.80;;;;;;;-3.64;77.61;98473.08;78138;1310;3051293;-65
2023/11/28 00:07:55;;;;;;;6.70;2.80;;;;;;;-3.66;77.87;98476.02;79312;1303;3013205;-67
2023/11/28 00:10:22;;;;;;;31.50;12.20;;;;;;;-3.70;78.00;98487.56;79007;1308;3012785;-66
2023/11/28 00:12:50;;;;;;;62.40;20.20;;;;;;;-3.53;77.23;98488.27;77962;1303;3049174;-64
2023/11/28 00:15:16;;;;;;;23.20;9.90;;;;;;;-3.77;78.19;98488.73;79470;1316;3013531;-63
2023/11/28 00:17:43;;;;;;;16.70;7.20;;;;;;;-3.78;78.31;98491.81;79267;1305;3011644;-64
2023/11/28 00:20:12;;;;;;;6.50;3.40;;;;;;;-3.87;78.68;98486.69;77986;1308;3026453;-64
2023/11/28 00:22:39;;;;;;;6.80;3.80;;;;;;;-3.77;78.32;98489.06;79486;1304;3012972;-62
2023/11/28 00:25:07;;;;;;;7.60;3.40;;;;;;;-3.92;78.92;98485.40;79211;1303;3011490;-63
2023/11/28 00:27:35;;;;;;;5.60;2.40;;;;;;;-3.97;79.05;98481.55;78062;1316;3050629;-68
2023/11/28 00:30:02;;;;;;;9.90;3.00;;;;;;;-3.88;79.03;98481.91;79254;1309;3018724;-64
2023/11/28 00:32:30;;;;;;;7.30;3.40;;;;;;;-3.92;78.85;98488.30;79293;1307;3011546;-63
2023/11/28 00:34:58;;;;;;;6.70;3.10;;;;;;;-3.85;78.48;98485.80;77784;1309;3049342;-64
2023/11/28 00:37:25;;;;;;;7.10;3.00;;;;;;;-3.96;78.74;98487.19;79173;1303;3013033;-66
2023/11/28 00:39:52;;;;;;;8.00;3.40;;;;;;;-4.05;78.96;98481.69;79010;1309;3011614;-67
2023/11/28 00:42:20;;;;;;;3.80;2.50;;;;;;;-4.06;79.43;98488.56;78046;1303;3026249;-61
2023/11/28 00:44:46;;;;;;;5.40;3.00;;;;;;;-4.04;79.09;98486.64;79003;1310;3013135;-66
2023/11/28 00:47:13;;;;;;;5.90;2.80;;;;;;;-4.10;79.27;98481.27;79089;1306;3013232;-67
2023/11/28 00:49:42;;;;;;;6.00;2.80;;;;;;;-4.09;78.90;98478.48;77859;1304;3026412;-65
2023/11/28 00:52:10;;;;;;;12.00;4.90;;;;;;;-4.12;79.07;98477.35;79318;1309;3013620;-64
2023/11/28 00:54:38;;;;;;;47.70;16.30;;;;;;;-4.13;78.89;98483.36;79162;1305;3011599;-64
2023/11/28 00:57:07;;;;;;;19.10;7.60;;;;;;;-4.22;79.31;98488.31;77819;1317;3049470;-65
2023/11/28 00:59:35;;;;;;;36.20;11.50;;;;;;;-4.35;79.80;98490.05;79067;1303;3012851;-64
2023/11/28 01:02:05;;;;;;;6.80;3.80;;;;;;;-4.28;79.93;98501.23;78577;1306;3011953;-64
2023/11/28 01:04:33;;;;;;;11.20;4.40;;;;;;;-3.80;79.40;98497.14;79223;1309;3011746;-68
2023/11/28 01:07:03;;;;;;;8.20;3.20;;;;;;;-3.30;76.95;98495.55;78627;1303;3011645;-65
2023/11/28 01:09:30;;;;;;;11.00;4.10;;;;;;;-3.12;76.24;98505.44;78988;1303;3012920;-66
2023/11/28 01:11:57;;;;;;;9.50;3.70;;;;;;;-3.26;75.83;98508.48;79176;1303;3011439;-67
2023/11/28 01:14:25;;;;;;;26.60;8.90;;;;;;;-3.48;76.27;98507.86;77857;1308;3051190;-63
2023/11/28 01:16:52;;;;;;;32.60;10.60;;;;;;;-3.51;76.48;98507.59;79091;1303;3013551;-65
2023/11/28 01:19:18;;;;;;;15.90;7.10;;;;;;;-3.73;76.88;98516.20;79286;1308;3012995;-64
2023/11/28 01:21:47;;;;;;;7.60;4.70;;;;;;;-3.84;76.85;98516.05;77885;1308;3026302;-65
2023/11/28 01:24:14;;;;;;;10.10;3.30;;;;;;;-4.01;77.58;98529.02;79244;1303;3015675;-67
2023/11/28 01:26:41;;;;;;;5.30;3.20;;;;;;;-3.86;77.31;98541.41;79299;1303;3011522;-65
2023/11/28 01:29:09;;;;;;;4.80;3.00;;;;;;;-3.79;76.83;98549.17;78351;1309;3049462;-67
2023/11/28 01:31:36;;;;;;;8.50;2.40;;;;;;;-3.99;77.20;98556.70;79091;1309;3015066;-65
2023/11/28 01:34:03;;;;;;;4.20;2.70;;;;;;;-3.97;77.18;98549.29;78937;1308;3011276;-66
2023/11/28 01:36:32;;;;;;;6.20;3.20;;;;;;;-3.99;77.05;98557.38;77809;1308;3051301;-66
2023/11/28 01:38:59;;;;;;;4.60;2.60;;;;;;;-4.03;77.24;98571.80;78999;1304;3012698;-64
2023/11/28 01:41:25;;;;;;;5.50;3.10;;;;;;;-4.14;77.55;98574.38;78903;1309;3011942;-64
2023/11/28 01:43:53;;;;;;;7.80;3.00;;;;;;;-4.09;77.21;98574.63;77866;1309;3028365;-62
2023/11/28 01:46:20;;;;;;;8.40;4.30;;;;;;;-4.11;77.07;98575.02;79305;1317;3018880;-62
2023/11/28 01:48:47;;;;;;;7.60;3.60;;;;;;;-4.01;76.93;98577.41;78962;1309;3011928;-67
2023/11/28 01:51:15;;;;;;;5.20;2.80;;;;;;;-4.17;77.21;98572.36;77576;1303;3028835;-67
2023/11/28 01:53:42;;;;;;;9.10;3.90;;;;;;;-4.23;77.31;98577.07;79061;1303;3012856;-65
2023/11/28 01:56:10;;;;;;;6.70;3.50;;;;;;;-4.19;77.18;98580.95;79109;1306;3011694;-67
2023/11/28 01:58:38;;;;;;;5.30;3.20;;;;;;;-4.09;76.71;98578.75;78144;1309;3049526;-68
2023/11/28 02:01:07;;;;;;;4.00;2.40;;;;;;;-4.16;76.56;98574.39;79019;1309;3013388;-68
2023/11/28 02:03:36;;;;;;;10.40;4.50;;;;;;;-4.02;76.65;98578.98;78758;1303;3011543;-64
2023/11/28 02:09:47;;;;;;;8.80;4.40;;;;;;;-4.00;76.14;98580.65;77892;1309;3056888;-62
2023/11/28 02:12:13;;;;;;;13.10;5.70;;;;;;;-4.01;75.85;98582.54;79025;1304;3019151;-65
2023/11/28 02:14:44;;;;;;;13.40;6.20;;;;;;;-3.97;75.61;98579.07;79042;1304;3013704;-65
2023/11/28 02:17:12;;;;;;;11.80;6.00;;;;;;;-3.98;75.38;98583.02;77739;1306;3050753;-66
2023/11/28 02:19:39;;;;;;;10.60;4.20;;;;;;;-4.07;75.70;98582.48;79108;1309;3013588;-67
2023/11/28 02:22:07;;;;;;;8.20;4.30;;;;;;;-4.11;75.79;98586.30;79116;1309;3013162;-64
2023/11/28 02:24:38;;;;;;;8.20;4.30;;;;;;;-4.10;75.92;98587.48;77975;1303;3057686;-67
2023/11/28 02:27:05;;;;;;;8.50;4.30;;;;;;;-4.09;75.59;98586.27;79219;1304;3012945;-64
2023/11/28 02:29:34;;;;;;;11.00;4.40;;;;;;;-4.17;75.78;98584.33;78243;1309;3011704;-65
2023/11/28 02:32:01;;;;;;;9.50;4.40;;;;;;;-4.00;75.32;98585.45;79204;1314;3018611;-66
2023/11/28 02:34:28;;;;;;;10.40;4.20;;;;;;;-4.02;74.89;98594.55;78931;1303;3013210;-63
2023/11/28 02:36:56;;;;;;;7.90;4.00;;;;;;;-4.03;74.84;98589.61;77705;1309;3025959;-65
2023/11/28 02:39:23;;;;;;;53.90;19.50;;;;;;;-4.07;74.83;98596.50;79039;1309;3018773;-65
2023/11/28 02:41:50;;;;;;;80.10;27.40;;;;;;;-4.15;74.94;98590.66;78927;1308;3011922;-61
2023/11/28 02:44:18;;;;;;;40.70;16.10;;;;;;;-4.06;75.35;98595.30;77952;1303;3025802;-65
2023/11/28 02:46:45;;;;;;;22.00;8.80;;;;;;;-4.04;75.31;98596.46;79119;1309;3013315;-63
2023/11/28 02:49:12;;;;;;;9.50;4.90;;;;;;;-4.04;75.36;98599.54;79282;1303;3011541;-66
2023/11/28 02:51:40;;;;;;;10.40;5.00;;;;;;;-4.10;75.33;98598.77;77901;1308;3068349;-66
2023/11/28 02:54:07;;;;;;;8.20;4.50;;;;;;;-4.03;75.43;98609.62;78950;1303;3020919;-62
2023/11/28 02:56:34;;;;;;;33.70;14.80;;;;;;;-4.05;74.91;98611.36;78871;1304;3012930;-63
2023/11/28 02:59:02;;;;;;;28.20;9.60;;;;;;;-4.11;75.35;98613.84;77811;1308;3028080;-64
2023/11/28 03:01:30;;;;;;;17.10;6.00;;;;;;;-4.04;75.18;98614.08;78941;1309;3012739;-67
2023/11/28 03:03:57;;;;;;;10.70;4.90;;;;;;;-4.05;74.91;98620.42;79082;1309;3011615;-67
2023/11/28 03:06:25;;;;;;;8.30;3.30;;;;;;;-4.06;75.05;98619.76;77885;1303;3068734;-64
2023/11/28 03:08:52;;;;;;;4.60;3.20;;;;;;;-3.99;75.06;98630.60;79176;1303;3019127;-65
2023/11/28 03:11:19;;;;;;;3.80;2.40;;;;;;;-3.93;74.75;98640.26;78941;1303;3013736;-65
2023/11/28 03:13:47;;;;;;;4.00;2.70;;;;;;;-3.85;74.44;98644.25;77841;1309;3053444;-62
2023/11/28 03:16:14;;;;;;;4.90;3.10;;;;;;;-3.83;74.43;98644.57;79252;1310;3018510;-64
2023/11/28 03:18:42;;;;;;;5.30;3.10;;;;;;;-3.82;74.25;98652.41;79215;1308;3013396;-63
2023/11/28 03:21:10;;;;;;;7.70;3.50;;;;;;;-3.84;74.13;98649.02;77983;1304;3068990;-63
2023/11/28 03:23:37;;;;;;;6.50;3.80;;;;;;;-3.73;74.23;98658.77;79334;1309;3011713;-64
2023/11/28 03:26:04;;;;;;;10.00;4.40;;;;;;;-3.80;74.40;98657.34;79800;1303;3012138;-66
2023/11/28 03:28:32;;;;;;;38.50;12.60;;;;;;;-3.62;73.98;98658.78;78316;1303;3053415;-63
2023/11/28 03:30:59;;;;;;;21.50;9.70;;;;;;;-3.63;73.85;98670.08;79496;1309;3012871;-62
2023/11/28 03:33:26;;;;;;;20.10;8.30;;;;;;;-3.57;73.54;98679.92;79424;1309;3011609;-65
2023/11/28 03:35:54;;;;;;;18.90;7.90;;;;;;;-3.83;74.14;98681.69;77980;1303;3026165;-68
2023/11/28 03:38:21;;;;;;;19.80;7.10;;;;;;;-3.93;74.99;98689.36;79156;1303;3013669;-61
2023/11/28 03:40:48;;;;;;;32.60;13.20;;;;;;;-3.80;74.52;98684.73;79110;1303;3011556;-63
2023/11/28 03:43:16;;;;;;;48.10;17.40;;;;;;;-3.71;74.46;98688.36;77983;1303;3053884;-64
2023/11/28 03:45:43;;;;;;;59.60;18.40;;;;;;;-3.68;74.24;98696.36;79230;1308;3011706;-66
2023/11/28 03:48:10;;;;;;;45.70;16.20;;;;;;;-3.57;74.09;98701.48;78995;1308;3013295;-64
2023/11/28 03:50:38;;;;;;;20.40;9.10;;;;;;;-3.48;73.83;98695.20;77712;1309;3028595;-65
2023/11/28 03:53:05;;;;;;;22.50;8.90;;;;;;;-3.54;74.37;98698.71;79359;1303;3013414;-61
2023/11/28 03:55:34;;;;;;;9.40;5.00;;;;;;;-3.59;74.51;98698.10;79023;1303;3011779;-63
2023/11/28 03:58:02;;;;;;;19.60;8.50;;;;;;;-3.48;74.35;98699.98;77876;1306;3053345;-65
2023/11/28 04:00:29;;;;;;;11.80;6.10;;;;;;;-3.54;74.73;98696.99;79051;1308;3013763;-63
2023/11/28 04:02:57;;;;;;;10.50;5.60;;;;;;;-3.53;74.88;98701.08;79064;1308;3013312;-60
2023/11/28 04:05:25;;;;;;;15.20;8.30;;;;;;;-3.45;74.88;98704.73;77848;1309;3067284;-63
2023/11/28 04:07:52;;;;;;;19.80;12.20;;;;;;;-3.56;75.32;98709.88;79239;1303;3013303;-66
2023/11/28 04:10:19;;;;;;;9.90;6.50;;;;;;;-3.61;75.74;98714.73;79020;1308;3011961;-62
2023/11/28 04:12:48;;;;;;;8.80;4.60;;;;;;;-3.61;76.03;98720.89;77883;1309;3053601;-63
2023/11/28 04:15:15;;;;;;;7.90;4.40;;;;;;;-3.49;75.62;98722.77;79251;1308;3013949;-63
2023/11/28 04:17:42;;;;;;;7.60;4.40;;;;;;;-3.53;75.84;98728.30;79180;1308;3011758;-65
2023/11/28 04:20:11;;;;;;;6.60;4.00;;;;;;;-3.45;76.04;98733.34;77916;1303;3068427;-62
2023/11/28 04:22:37;;;;;;;5.40;2.90;;;;;;;-3.39;75.86;98732.04;78897;1309;3012935;-65
2023/11/28 04:25:05;;;;;;;6.10;4.20;;;;;;;-3.42;75.87;98742.88;78966;1303;3012391;-64
2023/11/28 04:27:34;;;;;;;7.10;4.00;;;;;;;-3.42;76.20;98742.35;77762;1308;3053780;-62
2023/11/28 04:30:02;;;;;;;9.10;4.00;;;;;;;-3.40;76.18;98748.16;79090;1308;3013876;-65
2023/11/28 04:32:30;;;;;;;9.10;5.00;;;;;;;-3.37;76.03;98749.47;79124;1303;3011495;-64
2023/11/28 04:34:58;;;;;;;8.70;4.60;;;;;;;-3.41;76.46;98751.75;78017;1303;3069320;-65
2023/11/28 04:37:25;;;;;;;8.00;4.80;;;;;;;-3.46;76.69;98757.82;78968;1303;3013569;-62
2023/11/28 04:39:53;;;;;;;6.80;3.70;;;;;;;-3.42;76.95;98755.88;79106;1310;3011485;-64
2023/11/28 04:42:21;;;;;;;8.10;4.60;;;;;;;-3.30;76.34;98755.52;77956;1303;3053649;-64
2023/11/28 04:44:48;;;;;;;8.90;4.40;;;;;;;-3.35;77.07;98760.58;79119;1303;3014130;-62
2023/11/28 04:47:16;;;;;;;11.10;5.20;;;;;;;-3.26;76.49;98767.11;79173;1309;3011542;-64
2023/11/28 04:49:44;;;;;;;9.00;4.70;;;;;;;-3.45;77.28;98769.96;77977;1309;3068180;-65
2023/11/28 04:52:11;;;;;;;7.80;4.40;;;;;;;-3.32;77.30;98766.70;78912;1304;3013186;-64
2023/11/28 04:54:38;;;;;;;11.60;4.50;;;;;;;-3.36;76.57;98769.32;79026;1303;3011474;-63
2023/11/28 04:57:07;;;;;;;10.70;4.70;;;;;;;-3.51;77.22;98775.02;77869;1303;3053210;-65
2023/11/28 04:59:34;;;;;;;12.30;5.10;;;;;;;-3.32;76.73;98776.29;79462;1303;3013440;-62
2023/11/28 05:02:01;;;;;;;9.00;4.10;;;;;;;-3.48;76.86;98781.15;79149;1308;3011648;-60
2023/11/28 05:04:29;;;;;;;10.80;4.60;;;;;;;-3.60;77.12;98777.91;78062;1303;3068999;-62
2023/11/28 05:06:56;;;;;;;9.70;3.60;;;;;;;-3.51;77.45;98778.61;78991;1304;3013107;-65
2023/11/28 05:09:27;;;;;;;10.70;5.30;;;;;;;-3.56;77.02;98781.26;79145;1303;3011671;-63
2023/11/28 05:11:55;;;;;;;11.30;5.30;;;;;;;-3.66;77.52;98783.98;77725;1303;3052156;-62
2023/11/28 05:14:22;;;;;;;15.20;5.10;;;;;;;-3.70;77.60;98792.77;79228;1303;3013167;-61
2023/11/28 05:16:49;;;;;;;8.70;4.60;;;;;;;-3.80;77.79;98801.11;79173;1303;3011934;-64
2023/11/28 05:19:17;;;;;;;10.00;4.30;;;;;;;-3.74;77.69;98804.45;77839;1306;3067572;-64
2023/11/28 05:21:44;;;;;;;10.20;3.90;;;;;;;-3.79;77.42;98807.25;79122;1303;3013694;-64
2023/11/28 05:24:11;;;;;;;10.90;4.80;;;;;;;-3.89;77.34;98812.16;79321;1303;3011361;-64
2023/11/28 05:26:40;;;;;;;8.00;3.90;;;;;;;-3.83;77.42;98811.92;77981;1309;3053450;-67
2023/11/28 05:29:07;;;;;;;13.30;5.20;;;;;;;-3.78;77.21;98809.80;79242;1309;3012878;-63
2023/11/28 05:31:34;;;;;;;15.20;5.10;;;;;;;-3.86;77.40;98812.65;78938;1308;3011580;-66
2023/11/28 05:34:02;;;;;;;13.60;5.00;;;;;;;-3.91;77.49;98813.73;77888;1309;3068960;-64
2023/11/28 05:36:29;;;;;;;13.90;5.90;;;;;;;-3.92;77.63;98818.70;79102;1303;3013551;-65
2023/11/28 05:38:56;;;;;;;13.50;5.70;;;;;;;-3.88;77.19;98819.01;79108;1304;3011362;-65
2023/11/28 05:41:25;;;;;;;15.00;6.50;;;;;;;-3.91;77.27;98821.27;77709;1303;3051877;-62
2023/11/28 05:43:52;;;;;;;14.70;6.00;;;;;;;-3.88;76.87;98817.98;79400;1305;3012722;-65
2023/11/28 05:46:18;;;;;;;16.30;6.00;;;;;;;-3.88;76.87;98819.00;78935;1308;3011666;-61
2023/11/28 05:48:47;;;;;;;16.80;6.20;;;;;;;-3.91;77.22;98826.21;77723;1309;3067215;-66
2023/11/28 05:51:14;;;;;;;14.60;7.00;;;;;;;-3.89;77.10;98827.57;79344;1303;3013083;-65
2023/11/28 05:53:42;;;;;;;16.60;6.00;;;;;;;-3.96;76.93;98831.95;79170;1304;3011465;-70
2023/11/28 05:56:12;;;;;;;16.30;6.90;;;;;;;-3.85;76.59;98838.48;77857;1303;3052892;-64
2023/11/28 05:58:40;;;;;;;18.00;5.70;;;;;;;-3.85;76.33;98835.74;79265;1308;3013063;-64
2023/11/28 06:01:14;;;;;;;16.40;7.50;;;;;;;-3.65;75.90;98834.29;78726;1309;3011489;-63
2023/11/28 06:03:41;;;;;;;16.60;6.60;;;;;;;-3.73;75.77;98836.78;79435;1309;3013173;-64
2023/11/28 06:06:09;;;;;;;17.30;6.00;;;;;;;-3.84;75.83;98835.21;77878;1303;3069869;-64
2023/11/28 06:08:40;;;;;;;16.10;5.70;;;;;;;-3.82;75.91;98837.23;79408;1303;3013278;-66
2023/11/28 06:11:11;;;;;;;14.80;6.80;;;;;;;-3.58;75.83;98836.41;77891;1303;3049178;-68
2023/11/28 06:13:38;;;;;;;15.40;6.50;;;;;;;-3.67;75.31;98840.80;79224;1309;3012910;-65
2023/11/28 06:16:07;;;;;;;13.30;6.40;;;;;;;-3.69;75.39;98844.95;79343;1303;3013694;-65
2023/11/28 06:18:37;;;;;;;14.60;7.00;;;;;;;-3.73;75.20;98846.02;78111;1305;3052055;-65
2023/11/28 06:21:08;;;;;;;20.80;7.70;;;;;;;-3.63;75.31;98845.90;79303;1304;3011660;-65
2023/11/28 06:23:37;;;;;;;16.50;7.00;;;;;;;-3.50;74.76;98855.83;77831;1303;3051741;-63
2023/11/28 06:26:05;;;;;;;14.90;5.90;;;;;;;-3.70;74.27;98864.30;79271;1304;3012707;-64
2023/11/28 06:28:33;;;;;;;18.10;6.80;;;;;;;-3.81;74.79;98868.38;79142;1303;3013506;-62
2023/11/28 06:31:01;;;;;;;14.30;5.90;;;;;;;-3.66;74.70;98864.77;78017;1308;3050187;-65
2023/11/28 06:33:28;;;;;;;13.30;7.00;;;;;;;-3.67;74.36;98865.80;79201;1303;3013707;-65
2023/11/28 06:35:55;;;;;;;16.30;7.40;;;;;;;-3.55;74.44;98873.02;78930;1304;3013205;-64
2023/11/28 06:38:23;;;;;;;20.00;8.40;;;;;;;-3.52;74.30;98876.92;77934;1309;3028502;-65
2023/11/28 06:40:52;;;;;;;19.70;8.80;;;;;;;-3.45;74.26;98875.45;79179;1303;3013193;-65
2023/11/28 06:43:21;;;;;;;19.80;9.20;;;;;;;-3.42;74.11;98874.90;78661;1303;3011999;-62
2023/11/28 06:45:48;;;;;;;19.80;9.10;;;;;;;-3.41;73.71;98874.20;79552;1303;3013388;-63
2023/11/28 06:48:15;;;;;;;16.90;7.70;;;;;;;-3.25;73.38;98870.21;79166;1303;3012200;-64
2023/11/28 06:50:43;;;;;;;16.90;8.10;;;;;;;-3.18;72.75;98866.87;78011;1307;3028798;-60
2023/11/28 06:53:10;;;;;;;19.60;8.60;;;;;;;-3.12;72.43;98869.17;79328;1303;3013201;-63
2023/11/28 06:55:36;;;;;;;19.00;8.50;;;;;;;-2.98;72.21;98859.36;79211;1309;3011589;-61
2023/11/28 06:58:04;;;;;;;13.20;7.40;;;;;;;-2.91;71.78;98860.98;78168;1303;3026633;-63
2023/11/28 07:00:31;;;;;;;14.50;7.70;;;;;;;-2.99;71.73;98860.75;79425;1307;3012971;-66
2023/11/28 07:02:58;;;;;;;15.80;8.40;;;;;;;-2.80;71.82;98860.11;79010;1304;3013163;-62
2023/11/28 07:05:27;;;;;;;20.40;8.80;;;;;;;-2.73;71.21;98861.37;78116;1304;3027080;-64
2023/11/28 07:07:55;;;;;;;16.40;7.00;;;;;;;-2.72;71.24;98861.36;79206;1304;3012742;-64
2023/11/28 07:10:22;;;;;;;23.20;9.90;;;;;;;-2.65;71.11;98867.09;79150;1303;3011762;-67
2023/11/28 07:12:50;;;;;;;14.90;7.90;;;;;;;-2.58;70.93;98868.48;77710;1308;3049901;-62
2023/11/28 07:15:17;;;;;;;30.00;11.70;;;;;;;-2.37;70.49;98873.80;78890;1304;3015337;-61
2023/11/28 07:17:44;;;;;;;28.90;12.80;;;;;;;-2.34;70.04;98875.98;79205;1303;3013025;-63
2023/11/28 07:20:12;;;;;;;24.40;11.70;;;;;;;-2.38;69.99;98875.19;77902;1306;3052761;-64
2023/11/28 07:22:39;;;;;;;20.90;8.70;;;;;;;-2.57;70.64;98883.75;79109;1303;3013332;-64
2023/11/28 07:25:09;;;;;;;21.50;9.40;;;;;;;-2.85;71.15;98889.84;78975;1303;3011465;-63
2023/11/28 07:27:37;;;;;;;17.70;7.90;;;;;;;-2.65;71.57;98890.23;78060;1303;3048970;-67
2023/11/28 07:30:04;;;;;;;16.90;8.80;;;;;;;-2.46;70.94;98886.31;79219;1308;3018692;-65
2023/11/28 07:32:31;;;;;;;18.50;7.50;;;;;;;-2.42;70.54;98889.50;79145;1304;3011660;-65
2023/11/28 07:34:59;;;;;;;17.10;7.20;;;;;;;-2.32;71.03;98891.90;78237;1303;3052582;-69
2023/11/28 07:37:26;;;;;;;17.40;8.20;;;;;;;-2.24;70.18;98896.05;79694;1303;3013555;-69
2023/11/28 07:39:53;;;;;;;17.10;7.70;;;;;;;-2.38;70.51;98897.16;79367;1303;3011767;-67
2023/11/28 07:42:21;;;;;;;19.60;8.10;;;;;;;-2.43;70.41;98896.54;78239;1303;3025603;-65
2023/11/28 07:44:48;;;;;;;16.40;8.30;;;;;;;-2.35;71.11;98897.27;79621;1306;3018402;-63
2023/11/28 07:47:15;;;;;;;16.70;7.10;;;;;;;-2.28;70.27;98895.09;79491;1303;3011718;-63
2023/11/28 07:49:43;;;;;;;17.80;8.40;;;;;;;-2.19;70.46;98896.80;78206;1303;3027568;-65
2023/11/28 07:52:12;;;;;;;18.80;6.60;;;;;;;-2.30;70.63;98895.47;79271;1303;3013505;-65
2023/11/28 07:54:39;;;;;;;20.20;7.40;;;;;;;-2.42;70.42;98903.73;79084;1303;3011781;-69
2023/11/28 07:57:07;;;;;;;15.30;6.70;;;;;;;-2.46;71.01;98905.00;77906;1303;3049909;-69
2023/11/28 07:59:34;;;;;;;19.90;7.20;;;;;;;-2.42;71.02;98904.77;79238;1304;3013400;-62
2023/11/28 08:02:01;;;;;;;22.80;9.10;;;;;;;-2.38;71.14;98903.84;79321;1306;3013094;-63
2023/11/28 08:04:29;;;;;;;12.90;6.70;;;;;;;-2.46;71.38;98907.41;77824;1308;3051596;-65
2023/11/28 08:06:56;;;;;;;15.80;7.30;;;;;;;-2.45;71.76;98903.11;78985;1304;3012699;-66
2023/11/28 08:09:22;;;;;;;14.10;7.00;;;;;;;-2.41;71.35;98902.69;79094;1309;3012756;-68
2023/11/28 08:11:50;;;;;;;13.00;6.90;;;;;;;-2.37;71.66;98903.66;78335;1308;3025995;-64
2023/11/28 08:14:17;;;;;;;16.70;8.10;;;;;;;-2.21;71.71;98907.67;78940;1303;3013463;-64
2023/11/28 08:16:44;;;;;;;15.30;8.70;;;;;;;-2.23;71.90;98913.20;79344;1303;3011856;-64
2023/11/28 08:19:12;;;;;;;14.30;7.40;;;;;;;-2.26;71.95;98910.32;77923;1309;3028597;-66
2023/11/28 08:21:39;;;;;;;12.80;6.70;;;;;;;-2.22;72.19;98913.52;79087;1308;3013472;-63
2023/11/28 08:24:06;;;;;;;13.00;5.80;;;;;;;-2.13;71.58;98916.27;79078;1309;3011992;-59
2023/11/28 08:26:34;;;;;;;12.70;6.30;;;;;;;-1.91;71.11;98913.98;78216;1303;3026298;-62
2023/11/28 08:29:01;;;;;;;17.10;7.70;;;;;;;-1.68;71.46;98910.45;79243;1303;3018542;-62
2023/11/28 08:31:28;;;;;;;17.80;9.00;;;;;;;-1.58;71.40;98915.07;79232;1303;3011726;-60
2023/11/28 08:33:56;;;;;;;22.10;9.90;;;;;;;-1.54;70.52;98916.88;78027;1303;3026469;-67
2023/11/28 08:36:22;;;;;;;19.30;9.20;;;;;;;-1.41;70.52;98918.34;79205;1309;3013791;-65
2023/11/28 08:38:50;;;;;;;20.40;10.60;;;;;;;-1.43;70.02;98914.25;79178;1303;3011795;-61
2023/11/28 08:41:18;;;;;;;13.40;6.30;;;;;;;-1.45;69.73;98917.38;77906;1308;3049314;-61
2023/11/28 08:43:45;;;;;;;28.80;11.70;;;;;;;-1.55;68.97;98918.79;79377;1303;3013017;-65
2023/11/28 08:46:15;;;;;;;19.80;8.70;;;;;;;-1.51;69.17;98918.73;79276;1304;3013103;-63
2023/11/28 08:48:44;;;;;;;15.20;8.10;;;;;;;-1.56;69.41;98918.63;78051;1309;3050537;-63
2023/11/28 08:51:10;;;;;;;17.00;7.90;;;;;;;-1.49;69.88;98916.77;79002;1304;3015343;-62
2023/11/28 08:53:37;;;;;;;21.50;10.10;;;;;;;-1.36;69.48;98911.02;79481;1309;3013764;-67
2023/11/28 08:56:11;;;;;;;31.00;11.90;;;;;;;-1.28;69.51;98908.79;78144;1303;3048887;-65
2023/11/28 08:58:39;;;;;;;21.80;10.10;;;;;;;-1.19;68.82;98903.27;78969;1303;3011701;-65
2023/11/28 09:01:07;;;;;;;37.30;14.60;;;;;;;-1.24;68.57;98910.08;77847;1304;3049236;-65
2023/11/28 09:03:34;;;;;;;44.90;16.60;;;;;;;-1.26;68.48;98908.91;79302;1303;3013098;-63
2023/11/28 09:06:01;;;;;;;38.20;12.70;;;;;;;-1.02;68.77;98898.76;79153;1303;3011848;-66
2023/11/28 09:08:30;;;;;;;17.20;6.30;;;;;;;-0.98;67.57;98899.88;78172;1304;3051569;-66
2023/11/28 09:10:57;;;;;;;30.50;10.70;;;;;;;-0.99;67.79;98897.67;79287;1303;3012862;-64
2023/11/28 09:13:23;;;;;;;36.30;11.90;;;;;;;-0.85;67.52;98901.30;79256;1303;3011637;-64
2023/11/28 09:15:52;;;;;;;27.40;10.80;;;;;;;-0.66;67.09;98899.48;77932;1308;3025909;-62
2023/11/28 09:18:19;;;;;;;15.40;6.60;;;;;;;-0.54;67.09;98895.06;79214;1307;3013937;-63
2023/11/28 09:20:47;;;;;;;14.20;5.80;;;;;;;-0.62;67.13;98896.46;79305;1303;3011874;-63
2023/11/28 09:23:15;;;;;;;12.10;5.00;;;;;;;-0.49;67.03;98891.84;78309;1303;3050923;-62
2023/11/28 09:25:42;;;;;;;10.90;4.90;;;;;;;-0.61;66.11;98893.34;79083;1304;3013518;-62
2023/11/28 09:28:09;;;;;;;9.90;4.30;;;;;;;-0.76;65.97;98898.48;79050;1303;3013072;-64
2023/11/28 09:30:38;;;;;;;10.10;4.90;;;;;;;-0.77;66.09;98894.59;77778;1309;3050626;-65
2023/11/28 09:33:05;;;;;;;13.90;6.30;;;;;;;-0.51;66.45;98893.64;79136;1309;3013490;-65
2023/11/28 09:35:32;;;;;;;13.80;6.50;;;;;;;-0.36;66.71;98895.15;79605;1309;3013448;-63
2023/11/28 09:38:00;;;;;;;17.10;7.00;;;;;;;-0.30;66.64;98890.33;78011;1308;3028574;-65
2023/11/28 09:40:27;;;;;;;12.90;6.00;;;;;;;-0.18;66.53;98892.29;79066;1304;3013227;-65
2023/11/28 09:42:54;;;;;;;12.90;5.40;;;;;;;-0.29;65.51;98894.95;79091;1303;3013594;-65
2023/11/28 09:45:23;;;;;;;11.70;4.60;;;;;;;-0.30;65.06;98891.54;77647;1311;3050167;-65
2023/11/28 09:47:50;;;;;;;9.00;4.20;;;;;;;-0.34;64.48;98896.80;79045;1306;3013127;-66
2023/11/28 09:50:16;;;;;;;7.80;3.90;;;;;;;-0.37;64.60;98892.05;79095;1309;3011410;-66
2023/11/28 09:52:45;;;;;;;9.20;4.20;;;;;;;-0.38;65.07;98896.38;77902;1309;3051133;-65
2023/11/28 09:55:14;;;;;;;9.10;4.90;;;;;;;-0.22;65.26;98887.72;79181;1303;3013499;-62
2023/11/28 09:57:47;;;;;;;10.10;5.40;;;;;;;-0.06;65.48;98885.42;78783;1308;3011543;-63
2023/11/28 10:00:20;;;;;;;11.20;5.00;;;;;;;0.15;65.18;98882.42;79108;1303;3011751;-65
2023/11/28 10:02:52;;;;;;;6.80;4.10;;;;;;;0.26;64.91;98879.02;77889;1309;3051034;-63
2023/11/28 10:05:19;;;;;;;6.40;4.70;;;;;;;0.23;63.85;98880.86;79314;1303;3013149;-62
2023/11/28 10:07:48;;;;;;;7.80;4.10;;;;;;;0.43;63.83;98877.35;78118;1303;3027930;-63
2023/11/28 10:10:16;;;;;;;4.60;3.30;;;;;;;0.56;62.56;98878.36;79399;1308;3013659;-65
2023/11/28 10:12:43;;;;;;;4.50;3.00;;;;;;;0.49;62.31;98882.16;79067;1309;3011869;-67
2023/11/28 10:15:11;;;;;;;5.60;3.20;;;;;;;0.45;62.75;98886.77;77992;1309;3049987;-64
2023/11/28 10:17:38;;;;;;;6.90;3.00;;;;;;;0.46;62.81;98886.73;79393;1303;3013151;-64
2023/11/28 10:20:09;;;;;;;5.30;3.80;;;;;;;0.39;63.01;98884.54;79384;1303;3011527;-63
2023/11/28 10:22:38;;;;;;;6.50;3.50;;;;;;;0.75;62.99;98883.99;78399;1309;3052685;-66
2023/11/28 10:25:10;;;;;;;6.80;3.10;;;;;;;0.82;61.94;98880.34;79754;1303;3013672;-63
2023/11/28 10:27:46;;;;;;;6.70;3.90;;;;;;;0.87;61.71;98886.21;78353;1303;3055556;-61
2023/11/28 10:30:32;;;;;;;6.50;3.70;;;;;;;0.97;61.39;98886.63;78693;1304;3049366;-66
2023/11/28 10:33:00;;;;;;;7.60;3.40;;;;;;;0.83;61.81;98888.27;77749;1308;3053427;-66
2023/11/28 10:35:43;;;;;;;5.50;3.80;;;;;;;0.75;61.31;98884.02;76679;1308;3834291;-63
2023/11/28 10:38:15;;;;;;;10.70;3.50;;;;;;;0.89;61.28;98876.87;77923;1310;3052840;-62
2023/11/28 10:40:48;;;;;;;7.50;3.30;;;;;;;0.98;61.13;98873.82;79273;1303;3011666;-65
2023/11/28 10:43:17;;;;;;;7.30;4.10;;;;;;;0.97;61.28;98867.27;77873;1303;3049745;-62
2023/11/28 10:45:44;;;;;;;6.50;3.60;;;;;;;1.39;60.57;98866.30;79113;1304;3012872;-61
2023/11/28 10:48:11;;;;;;;4.50;2.70;;;;;;;1.37;58.80;98875.85;79007;1308;3013067;-61
2023/11/28 10:50:41;;;;;;;3.60;2.70;;;;;;;1.20;59.22;98876.92;77896;1309;3027747;-66
2023/11/28 10:53:11;;;;;;;7.30;3.20;;;;;;;1.18;58.97;98875.95;79182;1309;3013538;-66
2023/11/28 10:55:49;;;;;;;5.80;3.20;;;;;;;1.28;59.35;98878.56;77778;1309;3051460;-66
2023/11/28 10:58:18;;;;;;;6.90;3.00;;;;;;;1.47;59.10;98876.57;77689;1300;3068879;-64
2023/11/28 11:00:46;;;;;;;5.00;2.60;;;;;;;1.37;57.38;98880.38;79612;1301;3013726;-63
2023/11/28 11:03:14;;;;;;;5.20;3.10;;;;;;;1.41;57.21;98879.71;79112;1300;3013529;-62
2023/11/28 11:05:42;;;;;;;5.70;2.50;;;;;;;1.45;56.97;98880.80;77833;1304;3052934;-62
2023/11/28 11:08:10;;;;;;;4.50;2.80;;;;;;;1.66;57.28;98876.46;79269;1303;3012658;-63
2023/11/28 11:10:40;;;;;;;4.70;3.20;;;;;;;1.95;56.84;98870.99;79307;1306;3011549;-63
2023/11/28 11:13:41;;;;;;;4.40;3.30;;;;;;;1.84;56.76;98873.11;77750;1306;3069180;-66
2023/11/28 11:16:15;;;;;;;4.40;2.70;;;;;;;2.08;56.51;98866.92;78171;1303;3051204;-65
2023/11/28 11:18:46;;;;;;;6.60;3.50;;;;;;;2.26;56.28;98864.37;78739;1300;3011624;-63